Time;durP1;ratioP1;P1;durP2;ratioP2;P2;SDS_P1;SDS_P2;PMS_P1;PMS_P2;Temp;Humidity;BMP_temperature;BMP_pressure;BME280_temperature;BME280_humidity;BME280_pressure;Samples;Min_cycle;Max_cycle;Signal;HPM_P1;HPM_P2
2022/08/17 00:00:28;;;;;;;34.38;28.08;;;20.30;99.90;;;;;;5092680;28;20488;-72
2022/08/17 00:03:13;;;;;;;38.20;28.08;;;20.60;99.90;;;;;;5092385;28;20044;-73
2022/08/17 00:06:16;;;;;;;36.45;27.58;;;20.60;99.90;;;;;;5091321;28;20373;-72
2022/08/17 00:08:48;;;;;;;35.83;29.73;;;20.50;99.90;;;;;;5087960;28;20052;-72
2022/08/17 00:11:41;;;;;;;32.53;28.80;;;20.40;99.90;;;;;;5090944;28;20036;-72
2022/08/17 00:14:12;;;;;;;32.78;28.00;;;20.40;99.90;;;;;;5087149;28;20511;-71
2022/08/17 00:16:45;;;;;;;35.13;29.25;;;20.30;99.90;;;;;;5090880;28;20180;-72
2022/08/17 00:19:13;;;;;;;37.13;29.15;;;20.30;99.90;;;;;;5092235;28;20047;-73
2022/08/17 00:21:42;;;;;;;31.48;27.92;;;20.20;99.90;;;;;;5090480;28;20095;-72
2022/08/17 00:24:08;;;;;;;38.80;31.38;;;20.30;99.90;;;;;;5092019;28;20063;-72
2022/08/17 00:26:34;;;;;;;36.40;29.85;;;20.40;99.90;;;;;;5107880;28;20083;-72
2022/08/17 00:29:01;;;;;;;34.97;28.55;;;20.20;99.90;;;;;;5090682;28;20098;-73
2022/08/17 00:31:27;;;;;;;32.15;28.65;;;20.20;99.90;;;;;;5091768;28;20789;-72
2022/08/17 00:33:52;;;;;;;39.85;30.58;;;20.40;99.90;;;;;;5091904;28;20055;-72
2022/08/17 00:36:19;;;;;;;34.63;27.80;;;20.10;99.90;;;;;;5091806;28;20124;-71
2022/08/17 00:38:44;;;;;;;35.30;29.30;;;20.20;99.90;;;;;;5090606;28;20165;-72
2022/08/17 00:41:16;;;;;;;32.63;29.13;;;20.50;99.90;;;;;;5091440;28;20075;-73
2022/08/17 00:43:48;;;;;;;33.47;29.70;;;20.20;99.90;;;;;;5074091;28;20128;-72
2022/08/17 00:46:16;;;;;;;35.20;29.38;;;20.40;99.90;;;;;;5091702;28;20130;-72
2022/08/17 00:48:43;;;;;;;35.03;30.08;;;20.40;99.90;;;;;;5107788;28;20568;-72
2022/08/17 00:51:20;;;;;;;33.03;29.45;;;20.00;99.90;;;;;;5091438;28;20654;-71
2022/08/17 00:54:11;;;;;;;35.40;29.80;;;20.10;99.90;;;;;;5091627;28;20041;-72
2022/08/17 00:56:43;;;;;;;35.70;29.92;;;19.90;99.90;;;;;;5080592;28;20108;-71
2022/08/17 00:59:12;;;;;;;38.92;31.92;;;20.20;99.90;;;;;;5091710;28;20048;-71
2022/08/17 01:01:39;;;;;;;39.55;32.33;;;20.10;99.90;;;;;;5091678;28;20048;-71
2022/08/17 01:04:06;;;;;;;40.03;34.17;;;20.10;99.90;;;;;;5090235;28;20048;-72
2022/08/17 01:06:32;;;;;;;41.75;31.65;;;19.80;99.90;;;;;;5091803;28;20498;-72
2022/08/17 01:08:59;;;;;;;38.33;32.72;;;20.30;99.90;;;;;;5090331;28;20169;-72
2022/08/17 01:11:26;;;;;;;36.88;30.20;;;20.20;99.90;;;;;;5090327;28;20048;-72
2022/08/17 01:13:52;;;;;;;36.75;32.17;;;20.10;99.90;;;;;;5091616;28;20389;-72
2022/08/17 01:16:23;;;;;;;41.97;31.80;;;19.90;99.90;;;;;;5091372;28;20063;-72
2022/08/17 01:18:53;;;;;;;39.30;31.17;;;19.80;99.90;;;;;;5091209;28;20044;-72
2022/08/17 01:21:46;;;;;;;38.05;32.45;;;20.10;99.90;;;;;;5091608;28;20047;-72
2022/08/17 01:24:12;;;;;;;39.20;32.35;;;20.00;99.90;;;;;;5091575;28;20044;-72
2022/08/17 01:26:39;;;;;;;38.08;32.28;;;19.70;99.90;;;;;;5091266;28;20214;-72
2022/08/17 01:29:06;;;;;;;46.65;35.30;;;20.10;99.90;;;;;;5089949;28;20060;-72
2022/08/17 01:31:37;;;;;;;39.03;31.90;;;20.00;99.90;;;;;;5091270;28;20409;-73
2022/08/17 01:34:07;;;;;;;42.15;33.92;;;19.70;99.90;;;;;;5091174;28;20044;-72
2022/08/17 01:36:34;;;;;;;38.60;31.33;;;19.80;99.90;;;;;;5091500;28;20048;-72
2022/08/17 01:39:01;;;;;;;41.20;32.13;;;19.80;99.90;;;;;;5091312;28;20040;-72
2022/08/17 01:41:27;;;;;;;38.17;32.42;;;19.70;99.90;;;;;;5091312;28;20051;-71
2022/08/17 01:43:57;;;;;;;40.00;32.05;;;19.90;99.90;;;;;;5090041;28;20416;-73
2022/08/17 01:46:26;;;;;;;44.80;36.40;;;19.90;99.90;;;;;;5091285;28;20040;-73
2022/08/17 01:48:53;;;;;;;50.10;37.00;;;19.60;99.90;;;;;;5090015;28;20082;-73
2022/08/17 01:51:20;;;;;;;42.80;34.95;;;19.60;99.90;;;;;;5091210;28;20044;-73
2022/08/17 01:53:50;;;;;;;43.17;34.25;;;19.60;99.90;;;;;;5093051;28;20048;-73
2022/08/17 01:56:19;;;;;;;46.00;35.10;;;19.80;99.90;;;;;;5093669;28;20113;-73
2022/08/17 01:58:45;;;;;;;42.55;34.03;;;19.20;99.90;;;;;;5094940;28;20044;-73
2022/08/17 02:01:13;;;;;;;39.80;33.03;;;19.40;99.90;;;;;;5094585;28;20373;-73
2022/08/17 02:03:42;;;;;;;39.47;33.10;;;19.40;99.90;;;;;;5094403;28;20044;-73
2022/08/17 02:06:08;;;;;;;45.53;36.50;;;19.20;99.90;;;;;;5093340;28;20051;-72
2022/08/17 02:08:34;;;;;;;39.20;32.00;;;19.30;99.90;;;;;;5110411;28;20048;-72
2022/08/17 02:11:07;;;;;;;42.92;32.90;;;19.10;99.90;;;;;;5093018;28;20044;-73
2022/08/17 02:13:33;;;;;;;56.78;38.00;;;19.40;99.90;;;;;;5094448;28;20089;-73
2022/08/17 02:16:00;;;;;;;52.63;37.08;;;19.30;99.90;;;;;;5094498;28;20536;-73
2022/08/17 02:18:26;;;;;;;50.50;35.92;;;19.20;99.90;;;;;;5094072;28;20097;-73
2022/08/17 02:20:52;;;;;;;52.97;40.10;;;18.90;99.90;;;;;;5094173;28;20488;-73
2022/08/17 02:23:21;;;;;;;48.40;37.10;;;19.00;99.90;;;;;;5094516;28;20052;-73
2022/08/17 02:25:47;;;;;;;36.25;30.23;;;18.90;99.90;;;;;;5094441;28;20433;-72
2022/08/17 02:28:14;;;;;;;38.55;29.60;;;18.90;99.90;;;;;;5094226;28;20047;-72
2022/08/17 02:30:42;;;;;;;38.40;29.08;;;19.00;99.90;;;;;;5094118;28;20059;-72
2022/08/17 02:33:07;;;;;;;36.85;27.73;;;18.90;99.90;;;;;;5093823;28;20044;-72
2022/08/17 02:35:37;;;;;;;36.53;28.40;;;18.70;99.90;;;;;;5094015;28;20488;-73
2022/08/17 02:38:04;;;;;;;31.02;26.52;;;18.70;99.90;;;;;;5093961;28;20411;-73
2022/08/17 02:40:31;;;;;;;36.28;29.98;;;18.30;99.90;;;;;;5093729;28;20058;-73
2022/08/17 02:42:56;;;;;;;38.83;32.47;;;18.20;99.90;;;;;;5093896;28;20080;-72
2022/08/17 02:45:23;;;;;;;35.95;29.00;;;18.60;99.90;;;;;;5093814;28;20444;-72
2022/08/17 02:47:50;;;;;;;39.28;30.15;;;18.20;99.90;;;;;;5093411;28;20051;-72
2022/08/17 02:50:19;;;;;;;39.42;31.90;;;18.30;99.90;;;;;;5093638;28;20048;-73
2022/08/17 02:52:47;;;;;;;46.67;34.88;;;18.30;99.90;;;;;;5093578;28;20040;-73
2022/08/17 02:55:34;;;;;;;41.45;32.28;;;18.20;99.90;;;;;;5093767;28;20059;-73
2022/08/17 02:58:00;;;;;;;41.33;32.47;;;18.50;99.90;;;;;;5093535;28;20131;-72
2022/08/17 03:00:35;;;;;;;47.80;36.28;;;18.30;99.90;;;;;;5093299;28;20083;-73
2022/08/17 03:03:04;;;;;;;61.78;42.65;;;18.30;99.90;;;;;;5093466;28;20504;-73
2022/08/17 03:05:32;;;;;;;64.40;43.78;;;18.30;99.90;;;;;;5093191;28;20130;-73
2022/08/17 03:07:58;;;;;;;61.00;40.95;;;18.60;99.90;;;;;;5093535;28;20059;-74
2022/08/17 03:10:24;;;;;;;50.65;36.47;;;18.30;99.90;;;;;;5092155;28;20047;-73
2022/08/17 03:12:51;;;;;;;46.72;35.00;;;18.20;99.90;;;;;;5093160;28;20553;-73
2022/08/17 03:15:21;;;;;;;41.75;32.38;;;18.40;99.90;;;;;;5092855;28;20063;-73
2022/08/17 03:17:47;;;;;;;41.22;32.35;;;18.20;99.90;;;;;;5091786;28;20087;-73
2022/08/17 03:20:14;;;;;;;44.38;33.35;;;18.40;99.90;;;;;;5093316;28;20076;-73
2022/08/17 03:22:43;;;;;;;46.03;33.08;;;18.20;99.90;;;;;;5093186;28;20122;-73
2022/08/17 03:25:12;;;;;;;40.97;32.03;;;18.40;99.90;;;;;;5091918;28;20043;-72
2022/08/17 03:27:38;;;;;;;37.08;28.30;;;18.30;99.90;;;;;;5093099;28;20056;-72
2022/08/17 03:30:05;;;;;;;44.17;33.05;;;18.30;99.90;;;;;;5092871;28;20056;-73
2022/08/17 03:32:37;;;;;;;43.15;33.75;;;18.40;99.90;;;;;;5092779;28;20051;-72
2022/08/17 03:35:03;;;;;;;45.00;34.30;;;18.20;99.90;;;;;;5093027;28;20423;-72
2022/08/17 03:37:29;;;;;;;56.13;37.67;;;18.20;99.90;;;;;;5091735;28;20052;-72
2022/08/17 03:39:55;;;;;;;62.28;40.55;;;18.30;99.90;;;;;;5092750;28;20047;-73
2022/08/17 03:42:23;;;;;;;45.63;35.20;;;18.50;99.90;;;;;;5092696;28;20047;-73
2022/08/17 03:44:50;;;;;;;43.05;32.22;;;18.40;99.90;;;;;;5092333;28;20141;-72
2022/08/17 03:58:15;;;;;;;164.38;38.00;;;18.00;99.90;;;;;;5092155;28;20052;-72
2022/08/17 04:00:44;;;;;;;193.68;41.65;;;18.10;99.90;;;;;;5092487;28;20036;-73
2022/08/17 04:03:10;;;;;;;302.30;43.38;;;18.20;99.90;;;;;;5092203;28;20051;-73
2022/08/17 04:05:35;;;;;;;226.32;38.53;;;18.30;99.90;;;;;;5090866;28;20050;-73
2022/08/17 04:08:01;;;;;;;195.13;41.65;;;18.20;99.90;;;;;;5091411;28;20052;-73
2022/08/17 04:10:27;;;;;;;96.40;37.50;;;18.10;99.90;;;;;;5091969;28;20044;-74
2022/08/17 04:12:54;;;;;;;72.22;34.30;;;18.10;99.90;;;;;;5091059;28;20875;-73
2022/08/17 04:15:21;;;;;;;55.15;34.60;;;17.90;99.90;;;;;;5090522;28;20119;-73
2022/08/17 04:17:47;;;;;;;40.83;31.30;;;18.20;99.90;;;;;;5090586;28;20085;-73
2022/08/17 04:20:14;;;;;;;50.72;34.22;;;18.80;99.90;;;;;;5091877;28;20133;-73
2022/08/17 04:22:59;;;;;;;37.45;30.40;;;18.10;99.90;;;;;;5092140;28;20059;-73
2022/08/17 04:25:26;;;;;;;46.67;35.92;;;18.10;99.90;;;;;;5092167;28;20416;-72
2022/08/17 04:27:53;;;;;;;48.50;35.83;;;18.50;99.90;;;;;;5090557;28;20397;-72
2022/08/17 04:30:18;;;;;;;48.15;37.15;;;18.10;99.90;;;;;;5091718;28;20104;-72
2022/08/17 04:32:51;;;;;;;74.10;42.20;;;18.20;99.90;;;;;;5091893;28;20040;-73
2022/08/17 04:35:19;;;;;;;110.05;44.97;;;18.40;99.90;;;;;;5092091;28;20433;-73
2022/08/17 04:37:45;;;;;;;108.40;41.38;;;18.30;99.90;;;;;;5091752;28;20048;-73
2022/08/17 04:43:23;;;;;;;91.18;41.13;;;18.20;99.90;;;;;;5090630;28;20132;-74
2022/08/17 04:45:52;;;;;;;83.22;40.97;;;18.00;99.90;;;;;;5089446;28;20099;-72
2022/08/17 04:48:18;;;;;;;53.15;38.90;;;18.00;99.90;;;;;;5092017;28;20048;-73
2022/08/17 04:50:46;;;;;;;77.93;39.60;;;18.00;99.90;;;;;;5107764;28;20499;-73
2022/08/17 04:53:13;;;;;;;58.65;36.80;;;18.30;99.90;;;;;;5091878;28;20047;-73
2022/08/17 04:55:39;;;;;;;43.53;33.30;;;18.10;99.90;;;;;;5090464;28;20048;-73
2022/08/17 04:58:06;;;;;;;54.47;37.65;;;17.80;99.90;;;;;;5107414;28;20044;-73
2022/08/17 05:00:32;;;;;;;44.75;34.75;;;18.30;99.90;;;;;;5090793;28;20467;-72
2022/08/17 05:02:58;;;;;;;49.67;35.60;;;18.70;99.90;;;;;;5090641;28;20052;-73
2022/08/17 05:05:27;;;;;;;86.15;36.00;;;17.90;99.90;;;;;;5090358;28;20040;-73
2022/08/17 05:07:55;;;;;;;65.20;38.20;;;17.70;99.90;;;;;;5091565;28;20051;-73
2022/08/17 05:10:22;;;;;;;45.72;33.67;;;17.70;99.90;;;;;;5091288;28;20189;-73
2022/08/17 05:13:00;;;;;;;60.30;37.28;;;18.00;99.90;;;;;;5091365;28;20126;-73
2022/08/17 05:15:26;;;;;;;46.83;36.17;;;17.70;99.90;;;;;;5091641;28;20496;-72
2022/08/17 05:17:52;;;;;;;44.70;35.95;;;18.80;99.90;;;;;;5091589;28;20048;-72
2022/08/17 05:20:18;;;;;;;46.38;36.78;;;18.10;99.90;;;;;;5091255;28;20048;-73
2022/08/17 05:22:52;;;;;;;50.88;38.50;;;18.30;99.90;;;;;;5107091;28;20042;-74
2022/08/17 05:25:21;;;;;;;53.70;39.25;;;18.50;99.90;;;;;;5091137;28;20046;-74
2022/08/17 05:27:47;;;;;;;54.45;40.78;;;18.50;99.90;;;;;;5090268;28;20147;-73
2022/08/17 05:30:14;;;;;;;53.72;40.58;;;18.30;99.90;;;;;;5094954;28;20139;-72
2022/08/17 05:33:00;;;;;;;58.22;42.20;;;18.50;99.90;;;;;;5094176;28;20345;-72
2022/08/17 05:35:28;;;;;;;49.40;38.28;;;18.20;99.90;;;;;;5095081;28;20052;-72
2022/08/17 05:37:54;;;;;;;57.50;40.25;;;18.40;99.90;;;;;;5093896;28;20113;-72
2022/08/17 05:40:21;;;;;;;55.80;42.08;;;18.30;99.90;;;;;;5092729;28;20043;-73
2022/08/17 05:42:48;;;;;;;58.35;43.22;;;18.70;99.90;;;;;;5098703;28;20476;-73
2022/08/17 05:45:15;;;;;;;68.60;45.38;;;18.60;99.90;;;;;;5103974;28;20097;-72
2022/08/17 05:47:43;;;;;;;66.55;45.35;;;18.30;99.90;;;;;;5101876;28;20070;-73
2022/08/17 05:50:12;;;;;;;74.22;49.45;;;18.90;99.90;;;;;;5103497;28;20059;-73
2022/08/17 05:53:02;;;;;;;79.78;48.45;;;18.90;99.90;;;;;;5101823;28;20515;-72
2022/08/17 05:55:50;;;;;;;71.40;46.85;;;19.00;99.90;;;;;;5101755;28;21384;-72
2022/08/17 05:58:28;;;;;;;77.40;50.35;;;19.10;99.90;;;;;;5100328;28;20044;-72
2022/08/17 06:01:14;;;;;;;68.13;47.85;;;19.50;99.90;;;;;;5097545;28;20906;-72
2022/08/17 06:03:39;;;;;;;70.18;48.65;;;19.30;99.90;;;;;;5097720;28;20507;-73
2022/08/17 06:06:31;;;;;;;70.20;48.42;;;19.20;99.90;;;;;;5102127;28;20048;-72
2022/08/17 06:09:05;;;;;;;67.35;47.63;;;19.30;99.90;;;;;;5098436;28;20040;-71
2022/08/17 06:11:50;;;;;;;67.25;45.97;;;19.40;99.90;;;;;;5100617;28;20387;-72
2022/08/17 06:14:50;;;;;;;68.82;46.10;;;19.70;99.90;;;;;;5081017;28;20056;-72
2022/08/17 06:17:21;;;;;;;72.20;47.25;;;19.40;99.90;;;;;;5097497;28;20108;-71
2022/08/17 06:19:53;;;;;;;71.10;48.92;;;19.60;99.90;;;;;;5093620;28;20047;-71
2022/08/17 06:22:22;;;;;;;76.32;50.20;;;20.00;99.90;;;;;;5098209;28;20044;-71
2022/08/17 06:25:03;;;;;;;67.78;46.80;;;19.80;99.90;;;;;;5100812;28;20101;-71
2022/08/17 06:27:40;;;;;;;78.00;49.72;;;19.60;99.90;;;;;;5099995;28;20040;-72
2022/08/17 06:30:14;;;;;;;69.30;46.78;;;19.80;99.90;;;;;;5077610;28;20056;-72
2022/08/17 06:32:43;;;;;;;66.32;45.90;;;19.70;99.90;;;;;;5102137;28;20040;-71
2022/08/17 06:35:11;;;;;;;66.22;47.38;;;19.80;99.90;;;;;;5102580;28;20496;-72
2022/08/17 06:37:58;;;;;;;69.30;48.03;;;19.70;99.90;;;;;;5103666;27;20058;-72
2022/08/17 06:40:44;;;;;;;70.80;46.90;;;19.90;99.90;;;;;;5091037;28;20052;-71
2022/08/17 06:43:25;;;;;;;70.22;48.17;;;19.80;99.90;;;;;;5100392;28;20048;-71
2022/08/17 06:46:17;;;;;;;61.88;46.00;;;19.80;99.90;;;;;;5101020;28;20864;-71
2022/08/17 06:48:59;;;;;;;76.32;48.45;;;19.50;99.90;;;;;;5098336;28;20047;-72
2022/08/17 06:51:42;;;;;;;78.93;48.88;;;20.10;99.90;;;;;;5089152;28;20051;-75
2022/08/17 06:54:16;;;;;;;76.22;49.90;;;19.90;99.90;;;;;;5100112;28;20056;-73
2022/08/17 06:56:54;;;;;;;69.43;47.25;;;20.10;99.90;;;;;;5098764;28;20059;-70
2022/08/17 06:59:25;;;;;;;80.80;49.25;;;20.10;99.90;;;;;;5100362;28;20126;-71
2022/08/17 07:01:55;;;;;;;71.82;48.38;;;20.30;99.90;;;;;;5100106;28;20106;-70
2022/08/17 07:04:25;;;;;;;65.50;45.22;;;19.80;99.90;;;;;;5101791;28;20048;-70
2022/08/17 07:10:08;;;;;;;68.13;45.35;;;20.30;99.90;;;;;;5091838;28;20070;-69
2022/08/17 07:12:38;;;;;;;66.72;46.25;;;20.30;99.90;;;;;;5096738;27;20044;-71
2022/08/17 07:15:15;;;;;;;68.55;46.88;;;20.40;99.90;;;;;;5094903;28;20036;-71
2022/08/17 07:17:42;;;;;;;70.22;46.92;;;20.40;99.90;;;;;;5099415;28;20071;-71
2022/08/17 07:20:13;;;;;;;64.88;46.53;;;20.60;99.90;;;;;;5093264;28;20044;-71
2022/08/17 07:23:07;;;;;;;67.55;44.20;;;20.40;99.90;;;;;;5095544;28;20184;-71
2022/08/17 07:25:33;;;;;;;69.20;47.08;;;20.70;99.90;;;;;;5099175;28;20063;-71
2022/08/17 07:28:03;;;;;;;59.97;44.90;;;20.70;99.90;;;;;;5099327;28;20073;-71
2022/08/17 07:30:48;;;;;;;62.53;45.03;;;20.80;99.90;;;;;;5090477;28;20048;-71
2022/08/17 07:33:23;;;;;;;57.50;43.72;;;20.70;99.90;;;;;;5089405;28;20052;-71
2022/08/17 07:35:49;;;;;;;62.97;44.20;;;20.90;99.90;;;;;;5090806;28;20043;-72
2022/08/17 07:38:18;;;;;;;58.78;44.72;;;20.60;99.90;;;;;;5092806;28;20480;-71
2022/08/17 07:40:56;;;;;;;64.53;45.92;;;20.80;99.90;;;;;;5092295;28;20130;-71
2022/08/17 07:43:24;;;;;;;60.10;43.17;;;20.90;99.90;;;;;;5092665;28;20058;-70
2022/08/17 07:48:48;;;;;;;54.63;40.40;;;21.00;99.90;;;;;;5092375;28;20602;-71
2022/08/17 07:51:32;;;;;;;56.35;40.40;;;20.90;99.90;;;;;;5091478;28;20044;-71
2022/08/17 07:54:21;;;;;;;55.78;40.17;;;21.40;99.90;;;;;;5091168;28;20091;-71
2022/08/17 07:56:51;;;;;;;50.80;38.05;;;21.30;99.90;;;;;;5092319;28;20119;-71
2022/08/17 07:59:29;;;;;;;53.10;40.13;;;21.50;99.90;;;;;;5092193;28;20101;-72
2022/08/17 08:01:59;;;;;;;48.85;38.53;;;21.50;99.90;;;;;;5090974;28;20054;-72
2022/08/17 08:04:35;;;;;;;48.13;37.72;;;21.30;99.90;;;;;;5092097;28;20520;-70
2022/08/17 08:07:05;;;;;;;44.25;36.42;;;21.50;99.90;;;;;;5091839;28;20057;-71
2022/08/17 08:09:43;;;;;;;45.35;35.15;;;21.80;99.90;;;;;;5091944;28;20043;-70
2022/08/17 08:12:28;;;;;;;47.22;36.20;;;19.80;99.90;;;;;;5091923;28;20086;-71
2022/08/17 08:15:08;;;;;;;40.30;35.05;;;21.80;99.90;;;;;;5092062;28;20075;-74
2022/08/17 08:17:44;;;;;;;42.85;36.00;;;21.40;99.90;;;;;;5092299;28;20083;-73
2022/08/17 08:20:10;;;;;;;42.67;37.97;;;21.40;99.90;;;;;;5091779;28;20059;-72
2022/08/17 08:22:55;;;;;;;45.63;38.45;;;21.40;99.90;;;;;;5090786;28;20040;-71
2022/08/17 08:25:50;;;;;;;44.67;36.75;;;21.40;99.90;;;;;;5090755;28;20515;-74
2022/08/17 08:28:48;;;;;;;45.42;38.38;;;21.40;99.90;;;;;;5091894;28;20056;-70
2022/08/17 08:31:43;;;;;;;46.53;38.28;;;21.70;99.90;;;;;;5091890;28;20086;-73
2022/08/17 08:34:24;;;;;;;44.13;37.83;;;21.30;99.90;;;;;;5091771;28;20048;-71
2022/08/17 08:37:07;;;;;;;40.53;36.13;;;21.30;99.90;;;;;;5107560;28;20091;-76
2022/08/17 08:40:22;;;;;;;44.90;36.67;;;21.40;99.90;;;;;;5092331;28;20044;-76
2022/08/17 08:43:18;;;;;;;41.35;35.38;;;21.40;99.90;;;;;;5086246;28;20056;-79
2022/08/17 08:46:10;;;;;;;45.50;34.75;;;21.40;99.90;;;;;;5091753;28;20134;-72
2022/08/17 08:48:42;;;;;;;38.38;33.03;;;20.90;99.90;;;;;;5090758;28;20055;-73
2022/08/17 08:51:10;;;;;;;41.25;34.03;;;21.30;99.90;;;;;;5090434;28;20037;-76
2022/08/17 08:54:14;;;;;;;42.67;35.28;;;21.10;99.90;;;;;;5091456;28;20134;-74
2022/08/17 08:57:06;;;;;;;45.72;38.47;;;20.90;99.90;;;;;;5012600;28;20136;-72
2022/08/17 08:59:36;;;;;;;43.65;38.83;;;21.00;99.90;;;;;;5012381;28;20099;-72
2022/08/17 09:02:38;;;;;;;47.08;39.80;;;21.10;99.90;;;;;;5071505;28;20424;-72
2022/08/17 09:05:27;;;;;;;43.85;38.47;;;21.00;99.90;;;;;;5094491;28;20052;-73
2022/08/17 09:07:53;;;;;;;45.63;37.03;;;20.70;99.90;;;;;;5094138;28;20079;-72
2022/08/17 09:10:48;;;;;;;44.80;38.33;;;20.80;99.90;;;;;;5111193;28;20044;-72
2022/08/17 09:13:20;;;;;;;41.58;37.17;;;20.70;99.90;;;;;;5087087;28;20064;-71
2022/08/17 09:15:57;;;;;;;41.10;36.03;;;20.50;99.90;;;;;;5095192;28;20048;-71
2022/08/17 09:18:32;;;;;;;41.58;37.05;;;20.40;99.90;;;;;;5095238;28;20645;-72
2022/08/17 09:21:02;;;;;;;43.70;36.10;;;20.70;99.90;;;;;;5094389;28;20109;-74
2022/08/17 09:23:32;;;;;;;47.63;37.90;;;20.90;99.90;;;;;;5094299;28;20116;-79
2022/08/17 09:26:26;;;;;;;41.63;36.50;;;20.40;99.90;;;;;;5093771;28;20059;-77
2022/08/17 09:29:00;;;;;;;48.47;35.75;;;20.40;99.90;;;;;;5093596;28;20060;-75
2022/08/17 09:31:34;;;;;;;46.53;37.83;;;20.60;99.90;;;;;;5095263;28;20036;-73
2022/08/17 09:34:08;;;;;;;51.72;37.80;;;20.70;99.90;;;;;;5094673;28;20051;-72
2022/08/17 09:36:43;;;;;;;50.40;38.45;;;20.20;99.90;;;;;;5094032;28;20056;-77
2022/08/17 09:39:15;;;;;;;54.08;40.05;;;20.50;99.90;;;;;;5094066;28;20162;-71
2022/08/17 09:42:18;;;;;;;56.22;40.88;;;20.10;99.90;;;;;;5093691;28;20139;-68
2022/08/17 09:45:14;;;;;;;53.72;43.60;;;20.30;99.90;;;;;;5095193;28;20074;-74
2022/08/17 09:47:44;;;;;;;54.43;44.93;;;20.60;99.90;;;;;;5094604;28;20047;-70
2022/08/17 09:50:20;;;;;;;55.88;44.08;;;20.40;99.90;;;;;;5093560;28;20298;-73
2022/08/17 09:52:45;;;;;;;53.25;44.92;;;20.80;99.90;;;;;;5094959;28;20056;-74
2022/08/17 09:55:11;;;;;;;55.55;44.03;;;20.80;99.90;;;;;;5093430;28;20048;-75
2022/08/17 09:58:18;;;;;;;62.92;47.40;;;21.10;99.90;;;;;;5094839;28;20096;-72
2022/08/17 10:00:56;;;;;;;52.53;41.88;;;21.50;99.90;;;;;;5093797;28;20051;-77
2022/08/17 10:04:00;;;;;;;54.72;42.40;;;21.70;99.90;;;;;;5094805;28;20501;-74
2022/08/17 10:06:33;;;;;;;48.13;38.83;;;22.00;99.90;;;;;;5015508;28;20069;-71
2022/08/17 10:09:18;;;;;;;42.78;36.45;;;22.00;99.90;;;;;;5031827;28;20103;-73
2022/08/17 10:14:49;;;;;;;45.95;38.25;;;21.70;99.90;;;;;;5092590;28;20056;-73
2022/08/17 10:17:40;;;;;;;42.95;36.70;;;21.50;99.90;;;;;;5094116;28;20113;-78
2022/08/17 10:20:17;;;;;;;44.90;36.33;;;21.90;99.90;;;;;;5093100;28;20059;-77
2022/08/17 10:28:35;;;;;;;43.65;33.83;;;21.50;99.90;;;;;;5094013;28;20135;-74
2022/08/17 10:31:04;;;;;;;43.60;33.60;;;21.70;99.90;;;;;;5092990;28;20047;-78
2022/08/17 10:33:52;;;;;;;36.20;30.52;;;22.50;99.90;;;;;;5112233;28;20048;-77
2022/08/17 10:36:36;;;;;;;40.00;31.08;;;21.40;99.90;;;;;;5113280;28;20054;-78
2022/08/17 10:39:12;;;;;;;34.80;31.05;;;21.70;99.90;;;;;;5112953;28;20583;-80
2022/08/17 10:41:46;;;;;;;40.03;31.83;;;21.60;99.90;;;;;;5113266;28;20160;-77
2022/08/17 10:44:33;;;;;;;36.90;30.35;;;21.50;99.90;;;;;;5086851;28;20492;-81
2022/08/17 10:47:10;;;;;;;40.00;32.05;;;21.50;99.90;;;;;;5088713;28;20400;-68
2022/08/17 10:49:48;;;;;;;35.95;29.90;;;21.30;99.90;;;;;;5093440;28;20047;-71
2022/08/17 10:52:20;;;;;;;36.72;31.73;;;21.40;99.90;;;;;;5091989;28;20067;-74
2022/08/17 10:54:46;;;;;;;34.20;29.60;;;21.90;99.90;;;;;;5093713;28;20441;-71
2022/08/17 10:57:32;;;;;;;33.70;29.98;;;21.60;99.90;;;;;;5101723;28;20062;-74
2022/08/17 11:00:14;;;;;;;32.78;29.13;;;21.80;99.90;;;;;;5095750;28;20051;-75
2022/08/17 11:02:53;;;;;;;33.92;30.23;;;21.90;99.90;;;;;;5098704;28;20094;-76
2022/08/17 11:05:28;;;;;;;35.78;30.67;;;21.80;99.90;;;;;;5097893;28;20109;-75
2022/08/17 11:08:20;;;;;;;33.25;29.77;;;21.90;99.90;;;;;;5100075;28;20060;-71
2022/08/17 11:11:05;;;;;;;31.17;27.65;;;21.80;99.90;;;;;;5097785;28;20040;-70
2022/08/17 11:13:37;;;;;;;32.03;28.58;;;22.00;99.90;;;;;;5095621;28;20461;-71
2022/08/17 11:16:18;;;;;;;25.95;23.45;;;21.50;99.90;;;;;;5095937;28;20082;-75
2022/08/17 11:19:08;;;;;;;31.33;24.67;;;21.80;99.90;;;;;;5096012;28;20044;-71
2022/08/17 11:22:00;;;;;;;30.45;24.08;;;21.70;99.90;;;;;;5094548;28;20428;-73
2022/08/17 11:24:46;;;;;;;31.33;24.83;;;21.60;99.90;;;;;;5095549;28;20051;-73
2022/08/17 11:27:33;;;;;;;29.67;22.83;;;21.80;99.90;;;;;;5094414;28;20092;-72
2022/08/17 11:30:05;;;;;;;25.92;23.23;;;22.00;99.90;;;;;;5098742;28;20062;-74
2022/08/17 11:32:36;;;;;;;30.25;24.83;;;22.10;99.90;;;;;;5098847;28;20055;-81
2022/08/17 11:35:19;;;;;;;28.30;25.17;;;22.30;99.90;;;;;;5096120;28;20040;-78
2022/08/17 11:37:57;;;;;;;29.15;25.00;;;22.00;99.90;;;;;;5104272;28;20054;-74
2022/08/17 11:40:45;;;;;;;27.83;24.55;;;22.10;99.90;;;;;;5110154;28;20059;-77
2022/08/17 11:43:48;;;;;;;26.42;23.63;;;22.10;99.90;;;;;;5111565;28;20051;-77
2022/08/17 11:52:41;;;;;;;25.90;23.20;;;22.10;99.90;;;;;;5086600;28;20063;-76
2022/08/17 11:55:10;;;;;;;28.45;25.58;;;22.20;99.90;;;;;;5112727;28;20069;-79
2022/08/17 11:57:44;;;;;;;27.58;24.77;;;22.20;99.90;;;;;;5106049;28;20054;-77
2022/08/17 12:00:45;;;;;;;24.65;21.92;;;22.10;99.90;;;;;;5091074;28;20048;-75
2022/08/17 12:03:31;;;;;;;23.58;21.25;;;22.20;99.90;;;;;;5094997;28;20051;-79
2022/08/17 12:06:29;;;;;;;26.75;20.23;;;22.50;99.90;;;;;;5083606;28;20052;-80
2022/08/17 12:09:01;;;;;;;23.23;19.90;;;22.80;99.90;;;;;;5101170;28;20268;-72
2022/08/17 12:11:29;;;;;;;24.88;19.13;;;23.00;99.90;;;;;;5099476;28;20052;-78
2022/08/17 12:13:57;;;;;;;22.73;19.77;;;23.10;99.90;;;;;;5101371;28;20055;-78
2022/08/17 12:16:23;;;;;;;21.40;18.48;;;23.50;99.90;;;;;;5093245;28;20040;-74
2022/08/17 12:18:58;;;;;;;22.13;19.10;;;23.80;99.90;;;;;;5097783;28;20035;-77
2022/08/17 12:21:39;;;;;;;21.63;18.88;;;23.50;99.90;;;;;;5100599;28;20036;-79
2022/08/17 12:24:30;;;;;;;19.67;17.58;;;23.10;99.90;;;;;;5102073;28;20051;-76
2022/08/17 12:27:00;;;;;;;21.77;17.73;;;23.20;99.90;;;;;;5095728;28;20052;-78
2022/08/17 12:29:27;;;;;;;20.25;17.98;;;23.20;99.90;;;;;;5098982;28;20083;-79
2022/08/17 12:31:53;;;;;;;19.77;17.10;;;23.40;99.90;;;;;;5094226;28;20356;-77
2022/08/17 12:34:26;;;;;;;20.70;16.75;;;23.20;99.90;;;;;;5099163;28;20044;-80
2022/08/17 12:37:00;;;;;;;19.25;17.23;;;23.40;99.90;;;;;;5096154;28;20081;-74
2022/08/17 12:39:28;;;;;;;17.10;15.30;;;23.50;99.90;;;;;;5091127;28;20052;-76
2022/08/17 12:41:57;;;;;;;19.98;16.35;;;23.90;99.90;;;;;;5097287;28;20047;-74
2022/08/17 12:44:34;;;;;;;19.10;16.40;;;23.70;99.90;;;;;;5088932;28;20048;-78
2022/08/17 12:47:13;;;;;;;20.85;18.05;;;23.50;99.90;;;;;;5090214;28;20091;-70
2022/08/17 12:49:41;;;;;;;22.40;17.60;;;23.40;99.90;;;;;;5091438;28;20127;-77
2022/08/17 12:52:23;;;;;;;18.85;16.40;;;23.40;99.90;;;;;;5091735;28;20094;-72
2022/08/17 12:54:58;;;;;;;22.15;16.85;;;23.20;99.90;;;;;;5088969;28;20491;-74
2022/08/17 12:57:38;;;;;;;21.63;16.55;;;23.10;99.90;;;;;;5097197;28;20075;-77
2022/08/17 13:00:16;;;;;;;17.17;15.10;;;21.50;99.90;;;;;;5069636;28;20084;-73
2022/08/17 13:02:51;;;;;;;19.85;15.68;;;23.40;99.90;;;;;;5070300;28;20051;-74
2022/08/17 13:05:29;;;;;;;19.53;16.67;;;23.10;99.90;;;;;;5071363;28;20048;-71
2022/08/17 13:07:57;;;;;;;19.73;15.55;;;23.10;99.90;;;;;;5071521;28;20036;-77
2022/08/17 13:10:23;;;;;;;18.42;14.82;;;23.30;99.90;;;;;;5070688;28;20149;-76
2022/08/17 13:12:50;;;;;;;19.65;14.65;;;23.30;99.90;;;;;;5070251;28;20079;-79
2022/08/17 13:15:31;;;;;;;19.20;13.15;;;23.20;99.90;;;;;;5071198;28;20127;-71
2022/08/17 13:18:29;;;;;;;15.15;12.90;;;23.00;99.90;;;;;;5071129;28;20496;-75
2022/08/17 13:20:58;;;;;;;18.30;15.05;;;23.20;99.90;;;;;;5071254;28;20499;-75
2022/08/17 13:23:25;;;;;;;16.15;14.48;;;23.00;99.90;;;;;;5071207;28;20518;-74
2022/08/17 13:26:05;;;;;;;18.13;13.13;;;23.10;99.90;;;;;;5071123;28;20049;-70
2022/08/17 13:28:32;;;;;;;17.98;13.70;;;22.70;99.90;;;;;;5083195;28;20044;-74
2022/08/17 13:31:31;;;;;;;19.58;14.25;;;22.70;99.90;;;;;;5101018;28;20040;-76
2022/08/17 13:34:25;;;;;;;18.00;15.43;;;23.00;99.90;;;;;;5094896;28;20500;-75
2022/08/17 13:37:12;;;;;;;15.32;13.73;;;23.10;99.90;;;;;;5097103;28;20101;-77